Time;durP1;ratioP1;P1;durP2;ratioP2;P2;SDS_P1;SDS_P2;PMS_P1;PMS_P2;Temp;Humidity;BMP_temperature;BMP_pressure;BME280_temperature;BME280_humidity;BME280_pressure;Samples;Min_cycle;Max_cycle;Signal;HPM_P1;HPM_P2
2022/03/15 00:00:58;;;;;;;0.90;0.70;;;7.30;99.90;;;;;;5009609;28;20844;-86
2022/03/15 00:03:23;;;;;;;2.40;2.20;;;7.40;99.90;;;;;;5025753;28;20190;-86
2022/03/15 00:05:49;;;;;;;1.03;0.90;;;7.40;99.90;;;;;;5026424;28;20188;-87
2022/03/15 00:08:17;;;;;;;1.33;1.23;;;7.40;99.90;;;;;;5029493;28;20184;-87
2022/03/15 00:10:48;;;;;;;0.80;0.60;;;7.30;99.90;;;;;;5032416;28;20429;-87
2022/03/15 00:13:14;;;;;;;15.90;1.20;;;7.30;99.90;;;;;;5032792;28;20868;-87
2022/03/15 00:15:42;;;;;;;16.13;1.60;;;7.30;99.90;;;;;;5009360;28;20529;-87
2022/03/15 00:18:07;;;;;;;1.90;1.80;;;7.40;99.90;;;;;;5027540;28;21012;-88
2022/03/15 00:20:33;;;;;;;1.00;0.90;;;7.30;99.90;;;;;;5005459;28;20446;-86
2022/03/15 00:23:00;;;;;;;2.50;1.80;;;7.30;99.90;;;;;;5031661;28;20234;-87
2022/03/15 00:25:26;;;;;;;1.43;1.33;;;7.40;99.90;;;;;;5029264;28;20495;-87
2022/03/15 00:27:53;;;;;;;1.57;1.33;;;7.30;99.90;;;;;;5034954;28;20449;-87
2022/03/15 00:30:20;;;;;;;5.30;2.50;;;7.30;99.90;;;;;;5026500;28;20442;-87
2022/03/15 00:32:47;;;;;;;3.90;2.30;;;7.20;99.90;;;;;;5027239;28;20454;-87
2022/03/15 00:35:19;;;;;;;2.33;2.00;;;7.30;99.90;;;;;;5024773;28;20445;-86
2022/03/15 00:37:48;;;;;;;1.70;1.60;;;7.10;99.90;;;;;;5027440;28;20446;-87
2022/03/15 00:40:19;;;;;;;0.80;0.60;;;6.90;99.90;;;;;;5029778;28;20490;-86
2022/03/15 00:42:47;;;;;;;0.87;0.70;;;6.80;99.90;;;;;;5032607;28;20466;-86
2022/03/15 00:45:13;;;;;;;1.10;1.00;;;6.80;99.90;;;;;;5032082;28;20443;-86
2022/03/15 00:47:39;;;;;;;1.47;1.10;;;6.70;99.90;;;;;;5029540;28;20593;-86
2022/03/15 00:50:06;;;;;;;1.60;1.50;;;6.60;99.90;;;;;;5027048;28;20234;-86
2022/03/15 00:52:41;;;;;;;0.90;0.80;;;6.50;99.90;;;;;;5006039;28;20539;-86
2022/03/15 00:55:07;;;;;;;1.27;1.17;;;6.50;99.90;;;;;;5030065;28;20430;-88
2022/03/15 00:57:33;;;;;;;2.50;2.17;;;6.50;99.90;;;;;;5030774;28;20465;-86
2022/03/15 00:59:59;;;;;;;0.87;0.67;;;6.60;99.90;;;;;;5030091;28;20940;-87
2022/03/15 01:02:25;;;;;;;3.30;3.00;;;6.60;99.90;;;;;;4991023;28;20215;-87
2022/03/15 01:04:50;;;;;;;2.17;2.00;;;6.50;99.90;;;;;;5014319;28;20920;-87
2022/03/15 01:07:16;;;;;;;1.33;0.90;;;6.50;99.90;;;;;;5004694;28;20754;-87
2022/03/15 01:09:42;;;;;;;2.63;2.40;;;6.50;99.90;;;;;;5011037;28;20216;-86
2022/03/15 01:12:08;;;;;;;2.30;1.03;;;6.50;99.90;;;;;;4993085;28;20185;-86
2022/03/15 01:14:35;;;;;;;2.27;1.80;;;6.50;99.90;;;;;;5009589;28;20181;-87
2022/03/15 01:17:02;;;;;;;3.23;1.57;;;6.50;99.90;;;;;;4994658;28;20443;-87
2022/03/15 01:19:28;;;;;;;0.90;0.63;;;6.50;99.90;;;;;;5010379;28;20454;-87
2022/03/15 01:21:54;;;;;;;4.80;3.07;;;6.50;99.90;;;;;;5013342;28;20473;-87
2022/03/15 01:24:19;;;;;;;1.70;1.60;;;6.50;99.90;;;;;;5012210;28;20443;-86
2022/03/15 01:26:46;;;;;;;2.20;1.20;;;6.50;99.90;;;;;;4994148;28;20803;-87
2022/03/15 01:29:11;;;;;;;0.87;0.67;;;6.50;99.90;;;;;;5018736;28;20187;-87
2022/03/15 01:31:37;;;;;;;3.77;3.47;;;6.50;99.90;;;;;;5013694;28;21197;-87
2022/03/15 01:34:03;;;;;;;2.50;2.30;;;6.50;99.90;;;;;;5014793;28;20230;-86
2022/03/15 01:36:29;;;;;;;0.80;0.60;;;6.50;99.90;;;;;;5012960;28;20882;-87
2022/03/15 01:38:55;;;;;;;4.50;2.40;;;6.50;99.90;;;;;;5016229;28;20191;-87
2022/03/15 01:41:21;;;;;;;1.00;0.90;;;6.50;99.90;;;;;;5015095;28;20214;-87
2022/03/15 01:43:47;;;;;;;2.00;1.10;;;6.40;99.90;;;;;;5011788;28;20479;-86
2022/03/15 01:46:13;;;;;;;1.43;1.27;;;6.50;99.90;;;;;;5011089;28;20526;-87
2022/03/15 01:48:39;;;;;;;1.03;0.93;;;6.50;99.90;;;;;;4995657;28;20553;-87
2022/03/15 01:51:05;;;;;;;2.30;2.20;;;6.50;99.90;;;;;;5011315;28;20192;-87
2022/03/15 01:53:32;;;;;;;1.50;1.40;;;6.50;99.90;;;;;;5012259;28;21153;-87
2022/03/15 01:55:59;;;;;;;1.90;1.80;;;6.50;99.90;;;;;;5012892;28;20446;-87
2022/03/15 01:58:25;;;;;;;0.90;0.70;;;6.50;99.90;;;;;;5014577;28;20977;-87
2022/03/15 02:00:51;;;;;;;0.90;0.60;;;6.40;99.90;;;;;;5019901;28;21019;-87
2022/03/15 02:03:16;;;;;;;3.53;2.03;;;6.40;99.90;;;;;;5021448;28;20450;-87
2022/03/15 02:05:42;;;;;;;2.40;1.57;;;6.40;99.90;;;;;;5031636;28;20194;-87
2022/03/15 02:08:10;;;;;;;2.13;2.03;;;6.50;99.90;;;;;;5021000;28;20330;-87
2022/03/15 02:13:00;;;;;;;0.90;0.70;;;6.50;99.90;;;;;;5036125;23;20478;-86
2022/03/15 02:15:26;;;;;;;1.13;1.00;;;6.50;99.90;;;;;;5039683;28;21443;-87
2022/03/15 02:17:51;;;;;;;0.83;0.70;;;6.50;99.90;;;;;;5016257;28;20184;-86
2022/03/15 02:20:17;;;;;;;4.03;3.13;;;6.60;99.90;;;;;;5032769;28;20206;-87
2022/03/15 02:22:42;;;;;;;0.90;0.80;;;6.40;99.90;;;;;;5029193;28;20294;-87
2022/03/15 02:25:08;;;;;;;0.90;0.80;;;6.30;99.90;;;;;;5035988;28;20191;-87
2022/03/15 02:27:34;;;;;;;1.33;1.23;;;6.40;99.90;;;;;;5037128;28;20206;-87
2022/03/15 02:29:59;;;;;;;1.83;1.73;;;6.30;99.90;;;;;;5029552;28;20222;-87
2022/03/15 02:32:25;;;;;;;0.80;0.60;;;6.40;99.90;;;;;;5030695;28;20180;-86
2022/03/15 02:34:51;;;;;;;1.67;0.90;;;6.40;99.90;;;;;;5015622;28;20452;-87
2022/03/15 02:37:16;;;;;;;1.73;1.10;;;6.40;99.90;;;;;;5030561;28;20187;-86
2022/03/15 02:39:42;;;;;;;1.20;1.10;;;6.40;99.90;;;;;;5010861;28;20681;-87
2022/03/15 02:42:08;;;;;;;1.00;0.90;;;6.30;99.90;;;;;;5029685;28;20242;-87
2022/03/15 02:44:33;;;;;;;1.23;1.13;;;6.40;99.90;;;;;;5032276;28;20229;-87
2022/03/15 02:46:59;;;;;;;1.87;1.67;;;6.40;99.90;;;;;;5011796;28;20194;-87
2022/03/15 02:49:24;;;;;;;0.90;0.80;;;6.40;99.90;;;;;;5011399;28;20186;-87
2022/03/15 02:51:49;;;;;;;1.67;1.00;;;6.30;99.90;;;;;;5032359;28;20199;-87
2022/03/15 02:54:16;;;;;;;1.77;1.67;;;6.20;99.90;;;;;;5030622;28;20192;-87
2022/03/15 02:56:43;;;;;;;1.27;1.00;;;6.30;99.90;;;;;;5029134;28;20202;-88
2022/03/15 02:59:10;;;;;;;1.43;1.33;;;6.30;99.90;;;;;;5025894;28;20435;-87
2022/03/15 03:01:56;;;;;;;0.90;0.80;;;6.30;99.90;;;;;;5031062;28;21024;-87
2022/03/15 03:04:22;;;;;;;2.97;2.80;;;6.40;99.90;;;;;;5028707;28;20453;-87
2022/03/15 03:06:48;;;;;;;2.50;2.00;;;6.30;99.90;;;;;;5015356;28;20442;-87
2022/03/15 03:09:16;;;;;;;1.90;1.80;;;6.40;99.90;;;;;;5032468;28;20450;-86
2022/03/15 03:11:42;;;;;;;1.27;1.13;;;6.40;99.90;;;;;;5013432;28;20560;-87
2022/03/15 03:14:08;;;;;;;3.90;2.53;;;6.40;99.90;;;;;;5010727;28;20508;-86
2022/03/15 03:16:34;;;;;;;0.90;0.77;;;6.40;99.90;;;;;;5027189;28;20246;-87
2022/03/15 03:19:01;;;;;;;1.67;1.30;;;6.40;99.90;;;;;;5020312;28;20450;-87
2022/03/15 03:21:28;;;;;;;1.83;1.73;;;6.50;99.90;;;;;;5028807;28;20514;-87
2022/03/15 03:23:54;;;;;;;2.13;0.93;;;6.30;99.90;;;;;;5028704;28;20493;-86
2022/03/15 03:26:21;;;;;;;1.17;1.00;;;6.30;99.90;;;;;;5030465;28;20915;-86
2022/03/15 03:28:48;;;;;;;1.00;0.90;;;6.30;99.90;;;;;;5032026;28;20487;-87
2022/03/15 03:31:14;;;;;;;0.90;0.80;;;6.30;99.90;;;;;;5029542;28;20946;-87
2022/03/15 03:33:40;;;;;;;0.90;0.70;;;6.30;99.90;;;;;;5025392;28;20249;-87
2022/03/15 03:36:06;;;;;;;1.80;1.53;;;6.30;99.90;;;;;;5030969;28;20442;-85
2022/03/15 03:38:31;;;;;;;1.20;1.10;;;6.30;99.90;;;;;;5009061;28;20565;-86
2022/03/15 03:40:57;;;;;;;1.33;1.23;;;6.30;99.90;;;;;;5023642;28;20478;-88
2022/03/15 03:43:23;;;;;;;1.33;1.23;;;6.20;99.90;;;;;;5018552;28;20212;-87
2022/03/15 03:45:49;;;;;;;1.33;0.80;;;6.10;99.90;;;;;;5011541;28;20489;-87
2022/03/15 03:54:18;;;;;;;0.87;0.70;;;6.20;99.90;;;;;;5021979;23;20497;-85
2022/03/15 03:56:43;;;;;;;1.00;0.90;;;6.20;99.90;;;;;;5030503;23;20501;-86
2022/03/15 03:59:11;;;;;;;1.33;1.23;;;6.10;99.90;;;;;;5030983;28;20568;-86
2022/03/15 04:01:40;;;;;;;1.60;0.90;;;6.00;99.90;;;;;;5027772;28;20207;-85
2022/03/15 04:04:06;;;;;;;0.90;0.70;;;6.00;99.90;;;;;;5031315;28;20453;-86
2022/03/15 04:06:32;;;;;;;1.13;1.03;;;5.90;99.90;;;;;;5029286;28;20446;-85
2022/03/15 04:08:59;;;;;;;2.97;1.83;;;5.90;99.90;;;;;;5026801;28;20666;-85
2022/03/15 04:11:25;;;;;;;1.07;0.97;;;5.90;99.90;;;;;;5031572;28;20541;-85
2022/03/15 04:13:51;;;;;;;3.13;1.30;;;5.90;99.90;;;;;;5044772;28;20434;-85
2022/03/15 04:16:17;;;;;;;1.90;1.10;;;5.80;99.90;;;;;;5025196;28;20464;-86
2022/03/15 04:18:43;;;;;;;0.90;0.70;;;5.70;99.90;;;;;;5027516;28;20215;-84
2022/03/15 04:21:09;;;;;;;0.87;0.70;;;5.70;99.90;;;;;;5025690;28;20540;-85
2022/03/15 04:23:34;;;;;;;1.40;1.30;;;5.70;99.90;;;;;;5039325;23;20231;-85
2022/03/15 04:26:00;;;;;;;1.10;0.90;;;5.60;99.90;;;;;;5028951;28;20184;-85
2022/03/15 04:28:26;;;;;;;3.37;2.83;;;5.70;99.90;;;;;;5007239;28;20188;-86
2022/03/15 04:30:52;;;;;;;0.93;0.83;;;5.70;99.90;;;;;;5029060;28;20192;-86
2022/03/15 04:33:23;;;;;;;1.60;1.50;;;5.70;99.90;;;;;;5026453;28;21075;-85
2022/03/15 04:35:49;;;;;;;1.53;1.43;;;5.70;99.90;;;;;;5022904;28;20599;-86
2022/03/15 04:38:14;;;;;;;3.73;2.07;;;5.70;99.90;;;;;;5025816;28;20451;-86
2022/03/15 04:40:40;;;;;;;0.80;0.70;;;5.80;99.90;;;;;;5022588;28;20187;-85
2022/03/15 04:43:06;;;;;;;0.90;0.70;;;5.80;99.90;;;;;;4999452;28;20294;-86
2022/03/15 04:45:32;;;;;;;1.20;1.10;;;5.80;99.90;;;;;;5028772;28;20183;-86
2022/03/15 04:48:01;;;;;;;0.97;0.87;;;5.70;99.90;;;;;;5024990;28;20828;-86
2022/03/15 04:50:27;;;;;;;2.23;1.27;;;5.70;99.90;;;;;;5024647;28;20192;-85
2022/03/15 04:52:52;;;;;;;2.40;1.10;;;5.70;99.90;;;;;;5012815;28;20438;-86
2022/03/15 04:55:18;;;;;;;0.83;0.70;;;5.80;99.90;;;;;;5024379;28;20198;-85
2022/03/15 04:57:44;;;;;;;1.50;1.40;;;5.80;99.90;;;;;;5036467;28;20583;-85
2022/03/15 05:00:09;;;;;;;1.00;0.90;;;5.70;99.90;;;;;;5014321;28;20192;-85
2022/03/15 05:05:29;;;;;;;1.17;1.00;;;5.60;99.90;;;;;;5021452;28;20206;-85
2022/03/15 05:07:54;;;;;;;1.50;1.40;;;5.50;99.90;;;;;;5010097;28;20438;-85
2022/03/15 05:13:04;;;;;;;1.10;1.00;;;5.40;99.90;;;;;;5032115;28;20245;-85
2022/03/15 05:15:30;;;;;;;1.23;1.13;;;5.40;99.90;;;;;;5024541;28;21590;-86
2022/03/15 05:17:56;;;;;;;1.00;0.90;;;5.50;99.90;;;;;;5031851;28;20618;-85
2022/03/15 05:20:21;;;;;;;0.97;0.83;;;5.50;99.90;;;;;;5010045;28;20446;-85
2022/03/15 05:22:47;;;;;;;4.13;3.30;;;5.40;99.90;;;;;;5029238;28;20662;-86
2022/03/15 05:25:13;;;;;;;1.70;1.60;;;5.50;99.90;;;;;;5022828;28;20179;-86
2022/03/15 05:27:40;;;;;;;3.37;1.10;;;5.50;99.90;;;;;;5030353;28;20188;-85
2022/03/15 05:30:06;;;;;;;0.90;0.70;;;5.60;99.90;;;;;;5021208;28;21003;-86
2022/03/15 05:32:32;;;;;;;1.10;0.90;;;5.50;99.90;;;;;;5021822;28;20446;-85
2022/03/15 05:34:58;;;;;;;0.80;0.70;;;5.40;99.90;;;;;;5030365;28;20442;-86
2022/03/15 05:37:24;;;;;;;2.10;1.03;;;5.40;99.90;;;;;;5013226;28;20662;-85
2022/03/15 05:39:49;;;;;;;0.93;0.83;;;5.40;99.90;;;;;;5028988;28;20185;-85
2022/03/15 05:42:15;;;;;;;0.87;0.70;;;5.50;99.90;;;;;;5031298;28;20321;-85
2022/03/15 05:44:41;;;;;;;0.80;0.70;;;5.40;99.90;;;;;;5026245;28;21172;-85
2022/03/15 05:47:07;;;;;;;3.67;2.40;;;5.50;99.90;;;;;;5034374;28;20865;-85
2022/03/15 05:49:33;;;;;;;1.30;1.20;;;5.50;99.90;;;;;;5030964;28;20533;-86
2022/03/15 05:51:58;;;;;;;3.30;1.07;;;5.50;99.90;;;;;;5034785;23;20581;-85
2022/03/15 05:54:24;;;;;;;0.80;0.60;;;5.50;99.90;;;;;;5034616;28;20630;-86
2022/03/15 05:56:49;;;;;;;1.40;1.30;;;5.60;99.90;;;;;;5027760;28;20187;-85
2022/03/15 05:59:15;;;;;;;0.90;0.73;;;5.60;99.90;;;;;;5029182;28;20635;-84
2022/03/15 06:01:41;;;;;;;11.90;2.07;;;5.60;99.90;;;;;;5029148;23;20220;-85
2022/03/15 06:04:07;;;;;;;1.60;1.50;;;5.50;99.90;;;;;;5027228;28;20208;-84
2022/03/15 06:06:34;;;;;;;0.90;0.80;;;5.50;99.90;;;;;;5019464;28;20190;-84
2022/03/15 06:09:00;;;;;;;1.30;1.20;;;5.60;99.90;;;;;;5024125;28;20454;-83
2022/03/15 06:11:25;;;;;;;1.63;1.53;;;5.60;99.90;;;;;;5037134;23;20501;-84
2022/03/15 06:14:03;;;;;;;1.17;0.90;;;5.60;99.90;;;;;;5040908;23;20506;-85
2022/03/15 06:16:29;;;;;;;0.80;0.70;;;5.60;99.90;;;;;;5023178;28;20191;-85
2022/03/15 06:18:54;;;;;;;1.10;1.00;;;5.60;99.90;;;;;;5035103;28;20449;-84
2022/03/15 06:21:20;;;;;;;1.83;1.73;;;5.60;99.90;;;;;;5042516;28;20218;-84
2022/03/15 06:23:45;;;;;;;0.90;0.73;;;5.60;99.90;;;;;;5018081;28;20278;-84
2022/03/15 06:26:11;;;;;;;2.10;1.30;;;5.60;99.90;;;;;;5015704;28;20195;-87
2022/03/15 06:28:37;;;;;;;0.83;0.67;;;5.60;99.90;;;;;;5032230;28;20183;-86
2022/03/15 06:31:04;;;;;;;4.93;3.43;;;5.60;99.90;;;;;;5033546;28;20206;-86
2022/03/15 06:33:30;;;;;;;1.37;1.27;;;5.50;99.90;;;;;;5032954;28;20430;-86
2022/03/15 06:35:56;;;;;;;0.80;0.70;;;5.50;99.90;;;;;;5031638;28;20967;-86
2022/03/15 06:38:22;;;;;;;0.90;0.70;;;5.60;99.90;;;;;;5032103;28;20267;-86
2022/03/15 06:40:48;;;;;;;0.80;0.60;;;5.60;99.90;;;;;;5012136;28;20593;-86
2022/03/15 06:43:14;;;;;;;1.10;1.00;;;5.60;99.90;;;;;;5033096;28;20525;-86
2022/03/15 06:45:43;;;;;;;0.90;0.70;;;5.60;99.90;;;;;;5101260;23;20501;-85
2022/03/15 06:48:09;;;;;;;1.20;1.10;;;5.70;99.90;;;;;;5038639;28;20609;-85
2022/03/15 06:50:35;;;;;;;1.10;1.00;;;5.70;99.90;;;;;;5040860;28;20999;-85
2022/03/15 06:53:01;;;;;;;1.70;1.60;;;5.70;99.90;;;;;;5030524;28;20521;-86
2022/03/15 06:55:27;;;;;;;3.13;1.83;;;5.80;99.90;;;;;;5013694;28;21208;-85
2022/03/15 06:57:56;;;;;;;1.47;1.37;;;5.70;99.90;;;;;;5020879;28;20182;-85
2022/03/15 07:00:22;;;;;;;0.80;0.70;;;5.70;99.90;;;;;;5024634;28;20454;-85
2022/03/15 07:02:47;;;;;;;0.80;0.60;;;5.70;99.90;;;;;;5043098;22;20501;-84
2022/03/15 07:05:13;;;;;;;3.93;3.57;;;5.80;99.90;;;;;;5036896;28;20187;-85
2022/03/15 07:07:39;;;;;;;0.80;0.60;;;5.80;99.90;;;;;;5033346;28;20211;-86
2022/03/15 07:10:06;;;;;;;2.20;2.03;;;5.80;99.90;;;;;;5037464;28;20180;-85
2022/03/15 07:12:35;;;;;;;6.70;3.27;;;5.90;99.90;;;;;;5032957;28;20195;-84
2022/03/15 07:15:02;;;;;;;0.80;0.70;;;5.80;99.90;;;;;;5032079;28;20956;-84
2022/03/15 07:17:30;;;;;;;0.83;0.80;;;5.80;99.90;;;;;;5031353;28;20474;-85
2022/03/15 07:19:57;;;;;;;1.40;1.00;;;5.70;99.90;;;;;;5031930;28;20481;-86
2022/03/15 07:22:24;;;;;;;5.23;1.23;;;5.70;99.90;;;;;;5032016;28;20985;-85
2022/03/15 07:24:51;;;;;;;0.80;0.73;;;5.80;99.90;;;;;;5047748;28;20468;-85
2022/03/15 07:27:16;;;;;;;1.00;0.90;;;5.80;99.90;;;;;;5036220;28;20458;-85
2022/03/15 07:32:07;;;;;;;1.03;0.93;;;5.80;99.90;;;;;;5077970;22;20245;-85
2022/03/15 07:34:33;;;;;;;3.10;1.10;;;5.80;99.90;;;;;;5038058;28;20183;-85
2022/03/15 07:36:58;;;;;;;2.70;0.97;;;5.80;99.90;;;;;;5034852;28;20203;-85
2022/03/15 07:39:24;;;;;;;0.90;0.70;;;5.80;99.90;;;;;;5055524;23;20259;-85
2022/03/15 07:41:50;;;;;;;0.80;0.60;;;5.90;99.90;;;;;;5030325;28;20288;-83
2022/03/15 07:44:16;;;;;;;2.93;1.20;;;5.80;99.90;;;;;;5026326;28;20219;-84
2022/03/15 07:46:48;;;;;;;1.43;0.90;;;5.80;99.90;;;;;;5029925;28;20449;-84
2022/03/15 07:49:17;;;;;;;1.17;1.07;;;5.80;99.90;;;;;;5026790;28;20202;-84
2022/03/15 07:51:44;;;;;;;0.90;0.80;;;5.70;99.90;;;;;;5028772;28;20450;-83
2022/03/15 07:54:10;;;;;;;1.03;0.93;;;5.70;99.90;;;;;;5011543;28;20503;-84
2022/03/15 07:56:36;;;;;;;1.73;1.63;;;5.80;99.90;;;;;;5030310;28;20437;-86
2022/03/15 07:59:01;;;;;;;11.93;1.73;;;5.90;99.90;;;;;;5044960;28;20232;-86
2022/03/15 08:01:27;;;;;;;1.63;1.53;;;5.90;99.90;;;;;;5012842;28;20268;-87
2022/03/15 08:03:53;;;;;;;1.20;1.10;;;6.00;99.90;;;;;;5028065;28;20195;-86
2022/03/15 08:06:18;;;;;;;8.23;2.83;;;6.00;99.90;;;;;;5029849;28;20184;-86
2022/03/15 08:08:44;;;;;;;2.00;1.90;;;6.00;99.90;;;;;;5027707;28;20449;-87
2022/03/15 08:11:09;;;;;;;0.80;0.60;;;6.00;99.90;;;;;;5030832;28;20210;-85
2022/03/15 08:13:35;;;;;;;2.20;2.00;;;5.90;99.90;;;;;;5036366;28;20183;-86
2022/03/15 08:16:05;;;;;;;3.10;1.33;;;6.00;99.90;;;;;;5030257;28;20558;-85
2022/03/15 08:18:32;;;;;;;0.90;0.70;;;6.20;99.90;;;;;;5028091;28;20237;-86
2022/03/15 08:20:59;;;;;;;1.40;0.90;;;6.30;99.90;;;;;;5031708;28;20529;-86
2022/03/15 08:23:28;;;;;;;2.17;2.03;;;6.30;99.90;;;;;;5029997;28;20449;-85
2022/03/15 08:25:55;;;;;;;1.00;0.90;;;6.30;99.90;;;;;;5039746;28;20856;-85
2022/03/15 08:28:22;;;;;;;6.00;1.90;;;6.20;99.90;;;;;;5037510;28;20491;-87
2022/03/15 08:30:48;;;;;;;1.20;0.87;;;6.30;99.90;;;;;;5029462;28;20446;-86
2022/03/15 08:33:13;;;;;;;0.80;0.60;;;6.20;99.90;;;;;;5027778;28;21107;-86
2022/03/15 08:35:39;;;;;;;1.20;1.10;;;6.30;99.90;;;;;;5026350;28;20258;-86
2022/03/15 08:38:05;;;;;;;3.57;1.43;;;6.50;99.90;;;;;;5012828;28;20227;-86
2022/03/15 08:40:31;;;;;;;1.57;1.47;;;6.40;99.90;;;;;;5030086;28;20434;-87
2022/03/15 08:42:56;;;;;;;2.73;2.53;;;6.30;99.90;;;;;;5026978;28;20227;-86
2022/03/15 08:45:22;;;;;;;1.93;1.63;;;6.30;99.90;;;;;;5029669;28;20196;-86
2022/03/15 08:47:48;;;;;;;1.53;1.43;;;6.30;99.90;;;;;;5029703;28;20241;-86
2022/03/15 08:50:13;;;;;;;1.07;0.97;;;6.40;99.90;;;;;;5027971;28;20192;-86
2022/03/15 08:52:39;;;;;;;9.60;1.87;;;6.30;99.90;;;;;;5029212;28;20229;-86
2022/03/15 08:55:05;;;;;;;2.80;1.10;;;6.40;99.90;;;;;;5028825;28;20180;-86
2022/03/15 08:57:31;;;;;;;1.07;0.87;;;6.50;99.90;;;;;;5028276;28;20218;-86
2022/03/15 08:59:58;;;;;;;1.10;1.00;;;6.50;99.90;;;;;;5030016;28;20469;-86
2022/03/15 09:02:23;;;;;;;1.47;1.37;;;6.40;99.90;;;;;;5033811;28;20223;-86
2022/03/15 09:04:49;;;;;;;1.33;1.23;;;6.50;99.90;;;;;;5028945;28;20503;-86
2022/03/15 09:07:14;;;;;;;1.37;1.27;;;6.60;99.90;;;;;;5028970;28;20733;-86
2022/03/15 09:09:40;;;;;;;1.00;0.90;;;6.50;99.90;;;;;;5033536;28;20202;-87
2022/03/15 09:12:06;;;;;;;1.10;1.00;;;6.60;99.90;;;;;;5048887;28;20187;-86
2022/03/15 09:14:32;;;;;;;1.37;0.80;;;6.40;99.90;;;;;;5037645;28;20179;-86
2022/03/15 09:16:58;;;;;;;0.90;0.80;;;6.50;99.90;;;;;;5030254;28;20481;-86
2022/03/15 09:19:24;;;;;;;0.93;0.80;;;6.40;99.90;;;;;;5038626;28;20440;-86
2022/03/15 09:21:51;;;;;;;1.93;1.73;;;6.50;99.90;;;;;;5036275;28;20920;-87
2022/03/15 09:24:16;;;;;;;1.23;1.13;;;6.60;99.90;;;;;;5042862;28;20466;-87
2022/03/15 09:26:43;;;;;;;1.40;1.17;;;6.60;99.90;;;;;;5028998;28;20442;-86
2022/03/15 09:29:12;;;;;;;28.13;2.50;;;6.80;99.90;;;;;;5030174;28;20266;-86
2022/03/15 09:31:38;;;;;;;0.80;0.60;;;6.80;99.90;;;;;;5029107;28;20433;-86
2022/03/15 09:34:04;;;;;;;22.77;3.53;;;6.80;99.90;;;;;;5029729;28;20434;-86
2022/03/15 09:36:29;;;;;;;0.80;0.60;;;6.90;99.90;;;;;;5042673;28;20278;-87
2022/03/15 09:38:56;;;;;;;0.90;0.70;;;7.00;99.90;;;;;;5034693;28;20482;-87
2022/03/15 09:41:25;;;;;;;3.30;3.10;;;7.10;99.90;;;;;;5028097;28;20348;-86
2022/03/15 09:43:53;;;;;;;3.37;1.63;;;7.20;99.90;;;;;;5015320;28;20945;-85
2022/03/15 09:46:21;;;;;;;5.00;2.33;;;7.10;99.90;;;;;;5011978;28;20426;-86
2022/03/15 09:48:52;;;;;;;1.47;1.30;;;7.20;99.90;;;;;;5033465;28;20651;-86
2022/03/15 09:51:18;;;;;;;0.90;0.80;;;7.50;99.90;;;;;;5050963;28;20943;-86
2022/03/15 09:53:46;;;;;;;0.90;0.70;;;7.80;99.90;;;;;;5038146;28;20453;-86
2022/03/15 09:56:14;;;;;;;1.30;1.20;;;7.60;99.90;;;;;;5016120;28;20525;-86
2022/03/15 09:58:41;;;;;;;3.57;3.27;;;7.20;99.90;;;;;;5033112;28;20453;-86
2022/03/15 10:01:07;;;;;;;1.10;1.00;;;7.50;99.90;;;;;;5036622;28;20483;-86
2022/03/15 10:03:33;;;;;;;2.70;1.10;;;7.70;99.90;;;;;;5038033;28;20448;-85
2022/03/15 10:05:58;;;;;;;1.77;1.67;;;8.00;99.90;;;;;;5033759;28;20236;-85
2022/03/15 10:08:24;;;;;;;1.87;1.73;;;8.10;99.90;;;;;;5051551;28;20219;-86
2022/03/15 10:10:52;;;;;;;1.33;1.23;;;8.20;99.90;;;;;;5045463;28;20186;-86
2022/03/15 10:13:19;;;;;;;0.90;0.80;;;8.10;99.90;;;;;;5032205;28;20200;-86
2022/03/15 10:15:56;;;;;;;0.80;0.63;;;7.80;99.90;;;;;;5028087;28;20953;-85
2022/03/15 10:18:22;;;;;;;0.80;0.60;;;7.80;99.90;;;;;;5050763;28;20475;-85
2022/03/15 10:20:48;;;;;;;1.00;0.80;;;7.80;99.90;;;;;;5048816;28;20527;-86
2022/03/15 10:23:16;;;;;;;1.73;1.63;;;8.10;99.90;;;;;;5038855;28;20495;-86
2022/03/15 10:25:46;;;;;;;0.80;0.60;;;8.30;99.90;;;;;;5050733;28;20525;-86
2022/03/15 10:28:13;;;;;;;1.87;1.70;;;8.50;99.90;;;;;;5046175;28;20441;-86
2022/03/15 10:30:40;;;;;;;1.10;1.00;;;9.00;99.90;;;;;;5039289;28;20434;-85
2022/03/15 10:33:06;;;;;;;1.07;0.97;;;9.30;99.90;;;;;;5034083;28;20442;-86
2022/03/15 10:35:42;;;;;;;1.93;1.83;;;10.00;99.90;;;;;;5033222;28;20812;-85
2022/03/15 10:38:09;;;;;;;1.33;1.23;;;10.10;99.90;;;;;;5048555;28;20226;-86
2022/03/15 10:40:44;;;;;;;1.63;1.20;;;10.20;99.90;;;;;;5053106;28;20452;-85
2022/03/15 10:43:27;;;;;;;1.03;0.93;;;10.40;99.90;;;;;;5013154;28;20480;-83
2022/03/15 10:45:57;;;;;;;1.77;0.87;;;10.90;99.90;;;;;;5013323;28;20419;-83
2022/03/15 10:48:25;;;;;;;0.90;0.80;;;10.90;99.90;;;;;;5033223;28;20461;-84
2022/03/15 10:50:50;;;;;;;1.63;0.97;;;11.20;99.90;;;;;;5031679;28;20449;-83
2022/03/15 10:53:16;;;;;;;0.83;0.60;;;10.80;99.90;;;;;;5027084;28;20435;-85
2022/03/15 10:55:42;;;;;;;1.40;0.83;;;10.80;99.90;;;;;;5023149;28;20198;-82
2022/03/15 10:58:09;;;;;;;2.10;2.00;;;10.80;99.90;;;;;;5031592;28;20434;-83
2022/03/15 11:00:40;;;;;;;2.50;1.20;;;10.60;99.90;;;;;;5037212;28;20698;-85
2022/03/15 11:03:10;;;;;;;1.20;1.10;;;10.80;99.90;;;;;;5030546;28;20981;-85
2022/03/15 11:05:38;;;;;;;2.53;1.37;;;10.90;99.90;;;;;;5030767;28;20496;-85
2022/03/15 11:08:14;;;;;;;6.03;1.00;;;11.30;99.90;;;;;;5031446;28;20446;-83
2022/03/15 11:10:41;;;;;;;0.90;0.60;;;11.00;99.90;;;;;;5029117;28;20518;-85
2022/03/15 11:13:11;;;;;;;3.30;2.23;;;11.30;99.90;;;;;;5040070;28;20449;-86
2022/03/15 11:15:48;;;;;;;0.90;0.50;;;11.60;99.90;;;;;;5032401;28;20477;-86
2022/03/15 11:18:16;;;;;;;2.57;1.10;;;12.20;99.90;;;;;;5024941;28;20780;-86
2022/03/15 11:20:43;;;;;;;1.70;1.03;;;12.00;99.90;;;;;;5024113;28;20423;-86
2022/03/15 11:23:12;;;;;;;0.83;0.60;;;12.00;99.90;;;;;;5029679;28;21082;-86
2022/03/15 11:25:39;;;;;;;1.47;1.00;;;12.60;99.90;;;;;;5029045;28;20835;-86
2022/03/15 11:28:09;;;;;;;1.33;1.23;;;12.70;99.90;;;;;;5028096;28;20450;-86
2022/03/15 11:30:35;;;;;;;0.90;0.80;;;12.60;99.90;;;;;;5039594;28;20426;-86
2022/03/15 11:33:03;;;;;;;1.73;1.17;;;12.20;99.90;;;;;;5044132;28;20450;-86
2022/03/15 11:35:31;;;;;;;5.40;1.23;;;11.80;99.90;;;;;;5032390;28;20426;-86
2022/03/15 11:38:00;;;;;;;1.03;0.60;;;11.70;99.90;;;;;;5034353;28;20454;-86
2022/03/15 11:40:27;;;;;;;1.30;1.00;;;11.70;99.90;;;;;;5027181;28;20512;-87
2022/03/15 11:43:04;;;;;;;1.00;0.80;;;11.70;99.90;;;;;;5030556;28;20981;-86
2022/03/15 11:45:40;;;;;;;1.43;0.97;;;11.80;99.90;;;;;;5036147;28;20440;-85
2022/03/15 11:48:40;;;;;;;1.10;0.80;;;11.80;99.90;;;;;;5037682;28;20445;-87
2022/03/15 11:51:19;;;;;;;0.90;0.70;;;11.80;99.90;;;;;;5016801;28;20577;-87
2022/03/15 11:54:11;;;;;;;0.83;0.57;;;11.70;99.90;;;;;;5030110;28;20968;-86
2022/03/15 11:57:17;;;;;;;1.00;0.87;;;11.20;99.90;;;;;;5024236;28;20593;-85
2022/03/15 11:59:50;;;;;;;1.27;0.77;;;10.90;99.90;;;;;;5013644;28;20442;-86
2022/03/15 12:02:34;;;;;;;1.10;1.00;;;11.10;99.90;;;;;;5027252;28;20485;-85
2022/03/15 12:05:16;;;;;;;1.50;0.90;;;10.90;99.90;;;;;;5037643;28;20447;-86
2022/03/15 12:07:46;;;;;;;1.37;1.00;;;11.10;99.90;;;;;;5012138;28;20446;-86
2022/03/15 12:10:23;;;;;;;0.93;0.80;;;11.10;99.90;;;;;;5038660;28;20454;-85
2022/03/15 12:13:00;;;;;;;1.50;0.73;;;11.50;99.90;;;;;;5046377;28;20445;-86
2022/03/15 12:15:38;;;;;;;0.93;0.80;;;11.80;99.90;;;;;;5031757;28;20450;-85
2022/03/15 12:18:09;;;;;;;2.60;1.20;;;12.30;99.90;;;;;;5034708;28;20444;-85
2022/03/15 12:20:43;;;;;;;1.07;0.80;;;13.20;99.90;;;;;;5029703;28;20516;-86
2022/03/15 12:23:27;;;;;;;1.47;0.73;;;13.20;99.90;;;;;;5029331;28;20485;-86
2022/03/15 12:25:55;;;;;;;0.90;0.50;;;13.10;99.90;;;;;;5025851;28;20449;-86
2022/03/15 12:28:27;;;;;;;3.23;2.10;;;12.90;99.90;;;;;;5027104;28;20528;-87
2022/03/15 12:30:53;;;;;;;1.10;0.87;;;12.70;99.90;;;;;;5033359;28;20513;-85
2022/03/15 12:33:26;;;;;;;0.90;0.70;;;12.20;99.90;;;;;;5030935;28;20484;-88
2022/03/15 12:36:04;;;;;;;7.33;1.97;;;12.50;99.90;;;;;;5020815;28;20449;-85
2022/03/15 12:38:35;;;;;;;1.00;0.90;;;12.70;99.90;;;;;;5015598;28;20471;-84
2022/03/15 12:41:02;;;;;;;1.23;0.70;;;12.50;99.90;;;;;;5014770;28;20557;-84
2022/03/15 12:43:29;;;;;;;2.27;1.33;;;13.00;99.90;;;;;;5022973;28;20489;-85
2022/03/15 12:46:00;;;;;;;1.50;0.77;;;13.00;99.90;;;;;;5026162;28;20445;-86
2022/03/15 12:48:37;;;;;;;0.80;0.50;;;12.40;99.90;;;;;;5029098;28;20447;-87
2022/03/15 12:51:04;;;;;;;0.90;0.50;;;12.60;99.90;;;;;;5021474;28;20426;-86
2022/03/15 12:53:42;;;;;;;0.90;0.70;;;12.60;99.90;;;;;;5020231;28;20480;-88
2022/03/15 12:56:10;;;;;;;1.67;0.80;;;12.80;99.90;;;;;;5026244;28;20435;-87
2022/03/15 12:58:38;;;;;;;1.30;1.00;;;13.40;99.90;;;;;;5026529;28;20438;-90
2022/03/15 13:01:06;;;;;;;0.90;0.60;;;13.30;99.90;;;;;;5030920;28;20914;-89
2022/03/15 13:03:35;;;;;;;0.90;0.60;;;14.00;99.90;;;;;;5028003;28;20527;-88
2022/03/15 13:06:01;;;;;;;0.90;0.50;;;13.90;99.90;;;;;;5027287;28;20472;-85
2022/03/15 13:08:27;;;;;;;1.00;0.70;;;13.80;99.90;;;;;;5023636;28;20713;-89
2022/03/15 13:10:53;;;;;;;0.90;0.50;;;14.30;99.90;;;;;;5022137;28;20991;-89
2022/03/15 13:13:18;;;;;;;0.90;0.50;;;14.80;99.90;;;;;;5029307;28;20176;-88